sensor_id;sensor_type;location;lat;lon;timestamp;P1;durP1;ratioP1;P2;durP2;ratioP2
7985;SDS011;4038;42.612;23.066;2023-08-06T00:01:31;26.65;;;24.33;;
7985;SDS011;4038;42.612;23.066;2023-08-06T00:03:57;28.42;;;26.23;;
7985;SDS011;4038;42.612;23.066;2023-08-06T00:06:24;30.92;;;27.67;;
7985;SDS011;4038;42.612;23.066;2023-08-06T00:08:49;37.72;;;34.38;;
7985;SDS011;4038;42.612;23.066;2023-08-06T00:11:14;38.22;;;34.95;;
7985;SDS011;4038;42.612;23.066;2023-08-06T00:13:40;41.45;;;37.75;;
7985;SDS011;4038;42.612;23.066;2023-08-06T00:16:09;46.35;;;42.10;;
7985;SDS011;4038;42.612;23.066;2023-08-06T00:18:35;38.05;;;34.70;;
7985;SDS011;4038;42.612;23.066;2023-08-06T00:21:01;43.75;;;39.60;;
7985;SDS011;4038;42.612;23.066;2023-08-06T00:23:26;43.95;;;39.90;;
7985;SDS011;4038;42.612;23.066;2023-08-06T00:25:51;40.95;;;36.78;;
7985;SDS011;4038;42.612;23.066;2023-08-06T00:28:17;38.38;;;34.83;;
7985;SDS011;4038;42.612;23.066;2023-08-06T00:30:42;34.97;;;31.90;;
7985;SDS011;4038;42.612;23.066;2023-08-06T00:33:07;36.22;;;33.05;;
7985;SDS011;4038;42.612;23.066;2023-08-06T00:35:33;36.50;;;33.25;;
7985;SDS011;4038;42.612;23.066;2023-08-06T00:37:58;33.33;;;30.63;;
7985;SDS011;4038;42.612;23.066;2023-08-06T00:40:23;35.00;;;31.98;;
7985;SDS011;4038;42.612;23.066;2023-08-06T00:42:49;32.78;;;30.08;;
7985;SDS011;4038;42.612;23.066;2023-08-06T01:12:22;24.42;;;22.73;;
7985;SDS011;4038;42.612;23.066;2023-08-06T01:15:02;22.60;;;21.00;;
7985;SDS011;4038;42.612;23.066;2023-08-06T01:17:34;22.77;;;21.17;;
7985;SDS011;4038;42.612;23.066;2023-08-06T01:20:01;22.30;;;20.70;;
7985;SDS011;4038;42.612;23.066;2023-08-06T01:22:26;22.35;;;20.75;;
7985;SDS011;4038;42.612;23.066;2023-08-06T01:24:52;23.13;;;21.52;;
7985;SDS011;4038;42.612;23.066;2023-08-06T01:32:36;21.50;;;20.00;;
7985;SDS011;4038;42.612;23.066;2023-08-06T01:35:07;22.20;;;20.70;;
7985;SDS011;4038;42.612;23.066;2023-08-06T01:37:35;21.25;;;19.85;;
7985;SDS011;4038;42.612;23.066;2023-08-06T01:40:05;21.40;;;19.95;;
7985;SDS011;4038;42.612;23.066;2023-08-06T01:42:32;20.95;;;19.55;;
7985;SDS011;4038;42.612;23.066;2023-08-06T01:44:57;20.33;;;18.92;;
7985;SDS011;4038;42.612;23.066;2023-08-06T01:47:23;20.27;;;18.95;;
7985;SDS011;4038;42.612;23.066;2023-08-06T01:49:48;20.58;;;19.20;;
7985;SDS011;4038;42.612;23.066;2023-08-06T01:52:13;20.55;;;19.15;;
7985;SDS011;4038;42.612;23.066;2023-08-06T01:54:39;19.92;;;18.63;;
7985;SDS011;4038;42.612;23.066;2023-08-06T01:57:04;20.20;;;18.90;;
7985;SDS011;4038;42.612;23.066;2023-08-06T01:59:30;20.40;;;19.10;;
7985;SDS011;4038;42.612;23.066;2023-08-06T02:01:55;20.10;;;18.80;;
7985;SDS011;4038;42.612;23.066;2023-08-06T02:04:21;19.88;;;18.58;;
7985;SDS011;4038;42.612;23.066;2023-08-06T02:06:48;21.20;;;19.90;;
7985;SDS011;4038;42.612;23.066;2023-08-06T02:09:14;19.38;;;18.10;;
7985;SDS011;4038;42.612;23.066;2023-08-06T02:11:39;19.52;;;18.23;;
7985;SDS011;4038;42.612;23.066;2023-08-06T02:14:05;19.80;;;18.50;;
7985;SDS011;4038;42.612;23.066;2023-08-06T02:16:30;19.73;;;18.42;;
7985;SDS011;4038;42.612;23.066;2023-08-06T02:18:55;20.27;;;18.98;;
7985;SDS011;4038;42.612;23.066;2023-08-06T02:21:21;20.05;;;18.75;;
7985;SDS011;4038;42.612;23.066;2023-08-06T02:23:46;19.15;;;17.85;;
7985;SDS011;4038;42.612;23.066;2023-08-06T02:26:11;18.63;;;17.42;;
7985;SDS011;4038;42.612;23.066;2023-08-06T02:28:37;18.73;;;17.52;;
7985;SDS011;4038;42.612;23.066;2023-08-06T02:31:02;18.65;;;17.45;;
7985;SDS011;4038;42.612;23.066;2023-08-06T02:33:28;18.42;;;17.23;;
7985;SDS011;4038;42.612;23.066;2023-08-06T02:36:00;18.52;;;17.33;;
7985;SDS011;4038;42.612;23.066;2023-08-06T02:38:26;19.60;;;18.30;;
7985;SDS011;4038;42.612;23.066;2023-08-06T02:40:52;18.10;;;16.90;;
7985;SDS011;4038;42.612;23.066;2023-08-06T02:43:17;18.52;;;17.33;;
7985;SDS011;4038;42.612;23.066;2023-08-06T02:45:43;18.30;;;17.10;;
7985;SDS011;4038;42.612;23.066;2023-08-06T02:48:08;35.13;;;21.83;;
7985;SDS011;4038;42.612;23.066;2023-08-06T02:50:37;18.30;;;17.10;;
7985;SDS011;4038;42.612;23.066;2023-08-06T02:53:09;18.42;;;17.23;;
7985;SDS011;4038;42.612;23.066;2023-08-06T02:55:35;23.35;;;21.95;;
7985;SDS011;4038;42.612;23.066;2023-08-06T02:58:01;17.45;;;16.35;;
7985;SDS011;4038;42.612;23.066;2023-08-06T03:00:27;17.90;;;16.80;;
7985;SDS011;4038;42.612;23.066;2023-08-06T03:02:52;17.17;;;16.08;;
7985;SDS011;4038;42.612;23.066;2023-08-06T03:05:18;17.55;;;16.45;;
7985;SDS011;4038;42.612;23.066;2023-08-06T03:07:44;17.00;;;16.00;;
7985;SDS011;4038;42.612;23.066;2023-08-06T03:10:09;16.95;;;15.95;;
7985;SDS011;4038;42.612;23.066;2023-08-06T03:12:34;17.48;;;16.38;;
7985;SDS011;4038;42.612;23.066;2023-08-06T03:15:00;18.45;;;17.35;;
7985;SDS011;4038;42.612;23.066;2023-08-06T03:17:25;18.58;;;17.48;;
7985;SDS011;4038;42.612;23.066;2023-08-06T03:19:51;18.23;;;17.13;;
7985;SDS011;4038;42.612;23.066;2023-08-06T03:22:16;18.40;;;17.30;;
7985;SDS011;4038;42.612;23.066;2023-08-06T04:36:10;16.92;;;15.93;;
7985;SDS011;4038;42.612;23.066;2023-08-06T04:38:36;17.42;;;16.38;;
7985;SDS011;4038;42.612;23.066;2023-08-06T04:41:02;16.92;;;15.93;;
7985;SDS011;4038;42.612;23.066;2023-08-06T04:43:28;16.85;;;15.85;;
7985;SDS011;4038;42.612;23.066;2023-08-06T04:45:54;16.73;;;15.73;;
7985;SDS011;4038;42.612;23.066;2023-08-06T04:48:20;20.02;;;18.27;;
7985;SDS011;4038;42.612;23.066;2023-08-06T04:50:46;17.45;;;16.35;;
7985;SDS011;4038;42.612;23.066;2023-08-06T04:53:12;17.40;;;16.30;;
7985;SDS011;4038;42.612;23.066;2023-08-06T04:55:38;17.10;;;16.00;;
7985;SDS011;4038;42.612;23.066;2023-08-06T04:58:03;17.80;;;16.70;;
7985;SDS011;4038;42.612;23.066;2023-08-06T05:00:28;17.63;;;16.58;;
7985;SDS011;4038;42.612;23.066;2023-08-06T05:02:54;17.08;;;16.08;;
7985;SDS011;4038;42.612;23.066;2023-08-06T05:05:19;17.33;;;16.25;;
7985;SDS011;4038;42.612;23.066;2023-08-06T05:07:47;21.13;;;19.58;;
7985;SDS011;4038;42.612;23.066;2023-08-06T05:10:14;28.95;;;26.80;;
7985;SDS011;4038;42.612;23.066;2023-08-06T05:12:39;29.48;;;27.08;;
7985;SDS011;4038;42.612;23.066;2023-08-06T05:15:05;29.95;;;27.75;;
7985;SDS011;4038;42.612;23.066;2023-08-06T05:17:30;28.27;;;26.17;;
7985;SDS011;4038;42.612;23.066;2023-08-06T05:19:56;29.30;;;27.00;;
7985;SDS011;4038;42.612;23.066;2023-08-06T05:22:21;31.48;;;29.17;;
7985;SDS011;4038;42.612;23.066;2023-08-06T05:24:46;31.80;;;29.42;;
7985;SDS011;4038;42.612;23.066;2023-08-06T05:27:12;29.40;;;27.20;;
7985;SDS011;4038;42.612;23.066;2023-08-06T05:29:37;28.65;;;26.42;;
7985;SDS011;4038;42.612;23.066;2023-08-06T05:32:03;26.80;;;24.90;;
7985;SDS011;4038;42.612;23.066;2023-08-06T05:34:28;27.63;;;25.42;;
7985;SDS011;4038;42.612;23.066;2023-08-06T05:36:54;26.73;;;24.92;;
7985;SDS011;4038;42.612;23.066;2023-08-06T05:52:09;30.30;;;28.10;;
7985;SDS011;4038;42.612;23.066;2023-08-06T05:54:35;29.63;;;27.48;;
7985;SDS011;4038;42.612;23.066;2023-08-06T05:57:00;30.48;;;28.10;;
7985;SDS011;4038;42.612;23.066;2023-08-06T05:59:26;31.73;;;29.33;;
7985;SDS011;4038;42.612;23.066;2023-08-06T06:01:51;29.10;;;26.90;;
7985;SDS011;4038;42.612;23.066;2023-08-06T06:04:16;28.65;;;26.50;;
7985;SDS011;4038;42.612;23.066;2023-08-06T06:06:42;27.98;;;25.98;;
7985;SDS011;4038;42.612;23.066;2023-08-06T06:09:07;28.55;;;26.45;;
7985;SDS011;4038;42.612;23.066;2023-08-06T06:11:32;26.75;;;24.75;;
7985;SDS011;4038;42.612;23.066;2023-08-06T06:13:58;26.65;;;24.60;;
7985;SDS011;4038;42.612;23.066;2023-08-06T06:16:23;25.40;;;23.50;;
7985;SDS011;4038;42.612;23.066;2023-08-06T06:18:49;25.33;;;23.45;;
7985;SDS011;4038;42.612;23.066;2023-08-06T06:21:14;25.85;;;24.05;;
7985;SDS011;4038;42.612;23.066;2023-08-06T06:23:40;26.30;;;24.40;;
7985;SDS011;4038;42.612;23.066;2023-08-06T06:26:05;25.60;;;23.80;;
7985;SDS011;4038;42.612;23.066;2023-08-06T06:28:30;26.25;;;24.17;;
7985;SDS011;4038;42.612;23.066;2023-08-06T06:31:02;25.80;;;23.90;;
7985;SDS011;4038;42.612;23.066;2023-08-06T06:33:28;26.27;;;24.38;;
7985;SDS011;4038;42.612;23.066;2023-08-06T06:35:54;26.60;;;24.80;;
7985;SDS011;4038;42.612;23.066;2023-08-06T06:38:19;26.63;;;24.63;;
7985;SDS011;4038;42.612;23.066;2023-08-06T06:40:53;27.02;;;24.83;;
7985;SDS011;4038;42.612;23.066;2023-08-06T06:43:19;26.55;;;24.40;;
7985;SDS011;4038;42.612;23.066;2023-08-06T06:45:44;26.35;;;24.33;;
7985;SDS011;4038;42.612;23.066;2023-08-06T06:48:09;27.33;;;25.33;;
7985;SDS011;4038;42.612;23.066;2023-08-06T06:50:35;27.67;;;25.60;;
7985;SDS011;4038;42.612;23.066;2023-08-06T06:53:01;26.27;;;24.27;;
7985;SDS011;4038;42.612;23.066;2023-08-06T06:55:26;26.70;;;24.60;;
7985;SDS011;4038;42.612;23.066;2023-08-06T06:57:52;27.58;;;25.38;;
7985;SDS011;4038;42.612;23.066;2023-08-06T07:00:18;26.92;;;24.90;;
7985;SDS011;4038;42.612;23.066;2023-08-06T07:02:43;26.88;;;24.73;;
7985;SDS011;4038;42.612;23.066;2023-08-06T07:05:09;27.00;;;24.90;;
7985;SDS011;4038;42.612;23.066;2023-08-06T07:07:34;27.13;;;25.23;;
7985;SDS011;4038;42.612;23.066;2023-08-06T07:10:00;28.13;;;25.92;;
7985;SDS011;4038;42.612;23.066;2023-08-06T07:12:26;27.33;;;25.13;;
7985;SDS011;4038;42.612;23.066;2023-08-06T07:14:51;26.95;;;25.05;;
7985;SDS011;4038;42.612;23.066;2023-08-06T07:17:17;26.85;;;24.95;;
7985;SDS011;4038;42.612;23.066;2023-08-06T07:19:42;26.80;;;24.80;;
7985;SDS011;4038;42.612;23.066;2023-08-06T07:22:07;27.52;;;25.45;;
7985;SDS011;4038;42.612;23.066;2023-08-06T07:24:33;26.20;;;24.17;;
7985;SDS011;4038;42.612;23.066;2023-08-06T07:26:58;25.20;;;23.40;;
7985;SDS011;4038;42.612;23.066;2023-08-06T07:29:24;25.40;;;23.52;;
7985;SDS011;4038;42.612;23.066;2023-08-06T07:31:49;26.08;;;23.98;;
7985;SDS011;4038;42.612;23.066;2023-08-06T07:34:15;26.25;;;24.25;;
7985;SDS011;4038;42.612;23.066;2023-08-06T07:36:43;26.92;;;24.98;;
7985;SDS011;4038;42.612;23.066;2023-08-06T07:39:10;26.02;;;24.13;;
7985;SDS011;4038;42.612;23.066;2023-08-06T07:41:35;26.15;;;24.15;;
7985;SDS011;4038;42.612;23.066;2023-08-06T07:44:01;26.10;;;24.20;;
7985;SDS011;4038;42.612;23.066;2023-08-06T07:46:26;26.10;;;24.10;;
7985;SDS011;4038;42.612;23.066;2023-08-06T07:48:52;24.85;;;23.05;;
7985;SDS011;4038;42.612;23.066;2023-08-06T07:51:17;26.10;;;24.23;;
7985;SDS011;4038;42.612;23.066;2023-08-06T07:53:43;28.85;;;26.85;;
7985;SDS011;4038;42.612;23.066;2023-08-06T07:56:09;26.50;;;24.60;;
7985;SDS011;4038;42.612;23.066;2023-08-06T07:58:34;25.05;;;23.27;;
7985;SDS011;4038;42.612;23.066;2023-08-06T08:01:00;25.83;;;24.13;;
7985;SDS011;4038;42.612;23.066;2023-08-06T08:03:25;25.67;;;23.80;;
7985;SDS011;4038;42.612;23.066;2023-08-06T08:19:33;27.20;;;25.25;;
7985;SDS011;4038;42.612;23.066;2023-08-06T08:21:58;27.50;;;25.70;;
7985;SDS011;4038;42.612;23.066;2023-08-06T08:24:24;26.48;;;24.58;;
7985;SDS011;4038;42.612;23.066;2023-08-06T08:26:52;25.42;;;23.73;;
7985;SDS011;4038;42.612;23.066;2023-08-06T08:29:21;26.58;;;24.58;;
7985;SDS011;4038;42.612;23.066;2023-08-06T08:31:47;26.20;;;24.40;;
7985;SDS011;4038;42.612;23.066;2023-08-06T08:34:15;25.30;;;23.60;;
7985;SDS011;4038;42.612;23.066;2023-08-06T08:36:41;24.90;;;23.20;;
7985;SDS011;4038;42.612;23.066;2023-08-06T08:39:07;25.70;;;23.65;;
7985;SDS011;4038;42.612;23.066;2023-08-06T08:41:33;25.98;;;24.20;;
7985;SDS011;4038;42.612;23.066;2023-08-06T08:43:59;25.55;;;23.75;;
7985;SDS011;4038;42.612;23.066;2023-08-06T08:46:28;25.67;;;23.80;;
7985;SDS011;4038;42.612;23.066;2023-08-06T08:48:55;25.58;;;23.77;;
7985;SDS011;4038;42.612;23.066;2023-08-06T08:51:24;26.17;;;24.38;;
7985;SDS011;4038;42.612;23.066;2023-08-06T08:53:52;26.23;;;24.45;;
7985;SDS011;4038;42.612;23.066;2023-08-06T08:56:21;25.35;;;23.55;;
7985;SDS011;4038;42.612;23.066;2023-08-06T08:58:46;25.10;;;23.40;;
7985;SDS011;4038;42.612;23.066;2023-08-06T09:01:13;24.10;;;22.40;;
7985;SDS011;4038;42.612;23.066;2023-08-06T09:03:39;24.23;;;22.48;;
7985;SDS011;4038;42.612;23.066;2023-08-06T09:06:06;24.10;;;22.42;;
7985;SDS011;4038;42.612;23.066;2023-08-06T09:08:34;25.30;;;23.48;;
7985;SDS011;4038;42.612;23.066;2023-08-06T09:11:04;25.48;;;23.65;;
7985;SDS011;4038;42.612;23.066;2023-08-06T09:13:35;25.15;;;23.35;;
7985;SDS011;4038;42.612;23.066;2023-08-06T09:16:02;25.77;;;23.58;;
7985;SDS011;4038;42.612;23.066;2023-08-06T09:18:29;24.33;;;22.63;;
7985;SDS011;4038;42.612;23.066;2023-08-06T09:20:55;25.30;;;23.40;;
7985;SDS011;4038;42.612;23.066;2023-08-06T09:23:21;24.30;;;22.70;;
7985;SDS011;4038;42.612;23.066;2023-08-06T09:25:53;24.00;;;22.30;;
7985;SDS011;4038;42.612;23.066;2023-08-06T09:28:18;23.92;;;22.33;;
7985;SDS011;4038;42.612;23.066;2023-08-06T09:30:44;23.98;;;22.27;;
7985;SDS011;4038;42.612;23.066;2023-08-06T09:33:14;24.42;;;22.83;;
7985;SDS011;4038;42.612;23.066;2023-08-06T09:35:45;24.98;;;23.10;;
7985;SDS011;4038;42.612;23.066;2023-08-06T09:38:11;25.33;;;23.50;;
7985;SDS011;4038;42.612;23.066;2023-08-06T09:40:37;24.10;;;22.30;;
7985;SDS011;4038;42.612;23.066;2023-08-06T09:43:03;25.00;;;23.30;;
7985;SDS011;4038;42.612;23.066;2023-08-06T09:45:37;26.63;;;24.55;;
7985;SDS011;4038;42.612;23.066;2023-08-06T09:48:03;26.33;;;24.23;;
7985;SDS011;4038;42.612;23.066;2023-08-06T09:50:33;25.80;;;24.00;;
7985;SDS011;4038;42.612;23.066;2023-08-06T09:53:06;25.73;;;23.88;;
7985;SDS011;4038;42.612;23.066;2023-08-06T09:55:33;24.55;;;22.85;;
7985;SDS011;4038;42.612;23.066;2023-08-06T09:57:59;25.48;;;23.65;;
7985;SDS011;4038;42.612;23.066;2023-08-06T10:00:25;26.40;;;24.42;;
7985;SDS011;4038;42.612;23.066;2023-08-06T10:02:51;26.13;;;24.25;;
7985;SDS011;4038;42.612;23.066;2023-08-06T10:05:20;25.58;;;23.77;;
7985;SDS011;4038;42.612;23.066;2023-08-06T10:07:47;25.30;;;23.50;;
7985;SDS011;4038;42.612;23.066;2023-08-06T10:10:14;25.08;;;23.27;;
7985;SDS011;4038;42.612;23.066;2023-08-06T10:12:41;26.10;;;24.30;;
7985;SDS011;4038;42.612;23.066;2023-08-06T10:15:14;25.50;;;23.70;;
7985;SDS011;4038;42.612;23.066;2023-08-06T10:17:42;26.05;;;24.45;;
7985;SDS011;4038;42.612;23.066;2023-08-06T10:20:10;25.42;;;23.55;;
7985;SDS011;4038;42.612;23.066;2023-08-06T10:22:37;27.73;;;25.73;;
7985;SDS011;4038;42.612;23.066;2023-08-06T10:25:09;25.35;;;23.45;;
7985;SDS011;4038;42.612;23.066;2023-08-06T10:27:36;23.88;;;22.20;;
7985;SDS011;4038;42.612;23.066;2023-08-06T10:30:21;24.98;;;23.08;;
7985;SDS011;4038;42.612;23.066;2023-08-06T10:32:52;24.50;;;22.90;;
7985;SDS011;4038;42.612;23.066;2023-08-06T10:43:40;24.65;;;22.95;;
7985;SDS011;4038;42.612;23.066;2023-08-06T10:46:11;25.00;;;23.27;;
7985;SDS011;4038;42.612;23.066;2023-08-06T10:48:46;25.23;;;23.27;;
7985;SDS011;4038;42.612;23.066;2023-08-06T10:51:12;24.75;;;22.85;;
7985;SDS011;4038;42.612;23.066;2023-08-06T10:53:43;24.80;;;23.10;;
7985;SDS011;4038;42.612;23.066;2023-08-06T10:56:17;25.02;;;23.23;;
7985;SDS011;4038;42.612;23.066;2023-08-06T10:58:44;25.95;;;24.25;;
7985;SDS011;4038;42.612;23.066;2023-08-06T11:01:10;25.15;;;23.35;;
7985;SDS011;4038;42.612;23.066;2023-08-06T11:03:37;25.73;;;24.02;;
7985;SDS011;4038;42.612;23.066;2023-08-06T11:06:03;25.17;;;23.48;;
7985;SDS011;4038;42.612;23.066;2023-08-06T11:08:33;25.45;;;23.65;;
7985;SDS011;4038;42.612;23.066;2023-08-06T11:11:09;25.38;;;23.55;;
7985;SDS011;4038;42.612;23.066;2023-08-06T11:13:37;25.38;;;23.67;;
7985;SDS011;4038;42.612;23.066;2023-08-06T11:16:04;25.38;;;23.60;;
7985;SDS011;4038;42.612;23.066;2023-08-06T11:18:31;26.02;;;24.23;;
7985;SDS011;4038;42.612;23.066;2023-08-06T11:20:58;25.33;;;23.52;;
7985;SDS011;4038;42.612;23.066;2023-08-06T11:23:26;25.80;;;24.00;;
7985;SDS011;4038;42.612;23.066;2023-08-06T11:25:55;24.48;;;22.77;;
7985;SDS011;4038;42.612;23.066;2023-08-06T11:28:23;24.85;;;23.10;;
7985;SDS011;4038;42.612;23.066;2023-08-06T11:30:49;25.08;;;23.27;;
7985;SDS011;4038;42.612;23.066;2023-08-06T11:33:25;24.17;;;22.48;;
7985;SDS011;4038;42.612;23.066;2023-08-06T11:35:51;24.73;;;22.95;;
7985;SDS011;4038;42.612;23.066;2023-08-06T11:38:17;24.92;;;23.13;;
7985;SDS011;4038;42.612;23.066;2023-08-06T11:40:46;25.50;;;23.80;;
7985;SDS011;4038;42.612;23.066;2023-08-06T11:43:13;24.65;;;22.67;;
7985;SDS011;4038;42.612;23.066;2023-08-06T11:45:39;23.85;;;22.08;;
7985;SDS011;4038;42.612;23.066;2023-08-06T11:48:05;24.65;;;22.95;;
7985;SDS011;4038;42.612;23.066;2023-08-06T11:50:31;24.70;;;23.00;;
7985;SDS011;4038;42.612;23.066;2023-08-06T11:52:59;24.67;;;22.98;;
7985;SDS011;4038;42.612;23.066;2023-08-06T11:55:25;24.95;;;23.05;;
7985;SDS011;4038;42.612;23.066;2023-08-06T11:57:53;25.10;;;23.40;;
7985;SDS011;4038;42.612;23.066;2023-08-06T12:00:19;25.83;;;23.92;;
7985;SDS011;4038;42.612;23.066;2023-08-06T12:02:47;25.95;;;24.05;;
7985;SDS011;4038;42.612;23.066;2023-08-06T12:07:49;25.05;;;23.25;;
7985;SDS011;4038;42.612;23.066;2023-08-06T12:10:15;24.95;;;23.20;;
7985;SDS011;4038;42.612;23.066;2023-08-06T12:12:41;25.58;;;23.67;;
7985;SDS011;4038;42.612;23.066;2023-08-06T12:15:08;25.50;;;23.63;;
7985;SDS011;4038;42.612;23.066;2023-08-06T12:17:34;24.98;;;23.17;;
7985;SDS011;4038;42.612;23.066;2023-08-06T12:20:00;24.38;;;22.65;;
7985;SDS011;4038;42.612;23.066;2023-08-06T12:22:27;24.17;;;22.58;;
7985;SDS011;4038;42.612;23.066;2023-08-06T12:24:53;24.63;;;22.67;;
7985;SDS011;4038;42.612;23.066;2023-08-06T12:27:18;24.48;;;22.73;;
7985;SDS011;4038;42.612;23.066;2023-08-06T12:29:44;24.75;;;22.85;;
7985;SDS011;4038;42.612;23.066;2023-08-06T12:32:11;24.17;;;22.48;;
7985;SDS011;4038;42.612;23.066;2023-08-06T12:34:38;23.83;;;22.13;;
7985;SDS011;4038;42.612;23.066;2023-08-06T12:37:07;24.95;;;23.20;;
7985;SDS011;4038;42.612;23.066;2023-08-06T12:39:34;25.48;;;23.58;;
7985;SDS011;4038;42.612;23.066;2023-08-06T12:42:00;24.92;;;23.23;;
7985;SDS011;4038;42.612;23.066;2023-08-06T12:44:26;25.35;;;23.65;;
7985;SDS011;4038;42.612;23.066;2023-08-06T12:46:52;24.98;;;23.33;;
7985;SDS011;4038;42.612;23.066;2023-08-06T12:49:18;24.30;;;22.65;;
7985;SDS011;4038;42.612;23.066;2023-08-06T12:51:46;25.25;;;23.55;;
7985;SDS011;4038;42.612;23.066;2023-08-06T12:54:12;25.50;;;23.70;;
7985;SDS011;4038;42.612;23.066;2023-08-06T12:56:38;24.40;;;22.70;;
7985;SDS011;4038;42.612;23.066;2023-08-06T12:59:03;24.60;;;22.90;;
7985;SDS011;4038;42.612;23.066;2023-08-06T13:01:28;24.85;;;23.15;;
7985;SDS011;4038;42.612;23.066;2023-08-06T13:03:54;24.65;;;22.65;;
7985;SDS011;4038;42.612;23.066;2023-08-06T13:06:19;24.88;;;23.08;;
7985;SDS011;4038;42.612;23.066;2023-08-06T13:08:45;24.15;;;22.45;;
7985;SDS011;4038;42.612;23.066;2023-08-06T13:11:10;24.33;;;22.60;;
7985;SDS011;4038;42.612;23.066;2023-08-06T13:13:36;23.92;;;22.02;;
7985;SDS011;4038;42.612;23.066;2023-08-06T13:16:01;24.42;;;22.73;;
7985;SDS011;4038;42.612;23.066;2023-08-06T13:18:27;24.35;;;22.55;;
7985;SDS011;4038;42.612;23.066;2023-08-06T13:20:54;24.70;;;23.10;;
7985;SDS011;4038;42.612;23.066;2023-08-06T13:23:20;24.08;;;22.48;;
7985;SDS011;4038;42.612;23.066;2023-08-06T13:25:46;24.45;;;22.65;;
7985;SDS011;4038;42.612;23.066;2023-08-06T13:28:11;24.42;;;22.73;;
7985;SDS011;4038;42.612;23.066;2023-08-06T13:30:38;24.38;;;22.63;;
7985;SDS011;4038;42.612;23.066;2023-08-06T13:33:09;23.13;;;21.42;;
7985;SDS011;4038;42.612;23.066;2023-08-06T13:35:36;23.75;;;22.08;;
7985;SDS011;4038;42.612;23.066;2023-08-06T13:38:01;23.83;;;22.08;;
7985;SDS011;4038;42.612;23.066;2023-08-06T13:40:32;24.38;;;22.70;;
7985;SDS011;4038;42.612;23.066;2023-08-06T13:42:58;24.77;;;23.08;;
7985;SDS011;4038;42.612;23.066;2023-08-06T13:45:24;24.88;;;23.17;;
7985;SDS011;4038;42.612;23.066;2023-08-06T13:47:50;24.38;;;22.60;;
7985;SDS011;4038;42.612;23.066;2023-08-06T13:50:15;24.48;;;22.88;;
7985;SDS011;4038;42.612;23.066;2023-08-06T13:52:41;24.35;;;22.65;;
7985;SDS011;4038;42.612;23.066;2023-08-06T13:55:06;23.48;;;21.92;;
7985;SDS011;4038;42.612;23.066;2023-08-06T13:57:33;24.33;;;22.73;;
7985;SDS011;4038;42.612;23.066;2023-08-06T14:00:00;24.10;;;22.50;;
7985;SDS011;4038;42.612;23.066;2023-08-06T14:02:26;25.70;;;24.00;;
7985;SDS011;4038;42.612;23.066;2023-08-06T14:04:54;23.80;;;22.00;;
7985;SDS011;4038;42.612;23.066;2023-08-06T14:07:20;24.60;;;22.95;;
7985;SDS011;4038;42.612;23.066;2023-08-06T14:09:46;23.77;;;22.08;;
7985;SDS011;4038;42.612;23.066;2023-08-06T14:12:14;23.63;;;22.05;;
7985;SDS011;4038;42.612;23.066;2023-08-06T14:14:39;24.33;;;22.52;;
7985;SDS011;4038;42.612;23.066;2023-08-06T14:17:05;24.15;;;22.45;;
7985;SDS011;4038;42.612;23.066;2023-08-06T14:19:30;25.20;;;23.17;;
7985;SDS011;4038;42.612;23.066;2023-08-06T14:21:56;24.42;;;22.58;;
7985;SDS011;4038;42.612;23.066;2023-08-06T14:24:21;23.92;;;22.33;;
7985;SDS011;4038;42.612;23.066;2023-08-06T14:26:47;24.20;;;22.50;;
7985;SDS011;4038;42.612;23.066;2023-08-06T14:29:12;23.45;;;21.80;;
7985;SDS011;4038;42.612;23.066;2023-08-06T14:31:39;26.25;;;23.85;;
7985;SDS011;4038;42.612;23.066;2023-08-06T14:34:05;25.02;;;23.23;;
7985;SDS011;4038;42.612;23.066;2023-08-06T14:36:31;24.48;;;22.77;;
7985;SDS011;4038;42.612;23.066;2023-08-06T14:38:56;24.52;;;22.77;;
7985;SDS011;4038;42.612;23.066;2023-08-06T14:41:21;30.95;;;28.30;;
7985;SDS011;4038;42.612;23.066;2023-08-06T14:43:47;26.38;;;24.40;;
7985;SDS011;4038;42.612;23.066;2023-08-06T14:46:12;24.67;;;22.98;;
7985;SDS011;4038;42.612;23.066;2023-08-06T14:48:38;32.50;;;29.27;;
7985;SDS011;4038;42.612;23.066;2023-08-06T14:51:04;26.05;;;24.05;;
7985;SDS011;4038;42.612;23.066;2023-08-06T14:53:30;30.67;;;28.17;;
7985;SDS011;4038;42.612;23.066;2023-08-06T14:55:55;24.80;;;23.10;;
7985;SDS011;4038;42.612;23.066;2023-08-06T14:58:21;23.83;;;22.17;;
7985;SDS011;4038;42.612;23.066;2023-08-06T15:00:46;23.65;;;21.95;;
7985;SDS011;4038;42.612;23.066;2023-08-06T15:03:11;24.42;;;22.52;;
7985;SDS011;4038;42.612;23.066;2023-08-06T15:05:42;23.35;;;21.65;;
7985;SDS011;4038;42.612;23.066;2023-08-06T15:08:09;22.85;;;21.15;;
7985;SDS011;4038;42.612;23.066;2023-08-06T15:10:34;23.08;;;21.27;;
7985;SDS011;4038;42.612;23.066;2023-08-06T15:13:00;22.65;;;21.05;;
7985;SDS011;4038;42.612;23.066;2023-08-06T15:15:26;23.23;;;21.48;;
7985;SDS011;4038;42.612;23.066;2023-08-06T15:17:52;22.80;;;21.02;;
7985;SDS011;4038;42.612;23.066;2023-08-06T15:20:17;22.35;;;20.75;;
7985;SDS011;4038;42.612;23.066;2023-08-06T15:22:43;21.95;;;20.25;;
7985;SDS011;4038;42.612;23.066;2023-08-06T15:25:08;21.63;;;20.02;;
7985;SDS011;4038;42.612;23.066;2023-08-06T15:27:34;22.33;;;20.73;;
7985;SDS011;4038;42.612;23.066;2023-08-06T15:30:00;22.88;;;21.20;;
7985;SDS011;4038;42.612;23.066;2023-08-06T15:32:26;22.83;;;21.23;;
7985;SDS011;4038;42.612;23.066;2023-08-06T15:34:52;22.80;;;21.10;;
7985;SDS011;4038;42.612;23.066;2023-08-06T15:37:18;22.83;;;21.13;;
7985;SDS011;4038;42.612;23.066;2023-08-06T15:39:43;22.77;;;21.08;;
7985;SDS011;4038;42.612;23.066;2023-08-06T15:42:09;23.33;;;21.73;;
7985;SDS011;4038;42.612;23.066;2023-08-06T15:44:35;23.70;;;22.00;;
7985;SDS011;4038;42.612;23.066;2023-08-06T15:47:00;24.55;;;22.73;;
7985;SDS011;4038;42.612;23.066;2023-08-06T15:49:26;22.77;;;21.17;;
7985;SDS011;4038;42.612;23.066;2023-08-06T15:51:51;23.65;;;21.95;;
7985;SDS011;4038;42.612;23.066;2023-08-06T15:54:18;23.58;;;21.88;;
7985;SDS011;4038;42.612;23.066;2023-08-06T15:56:44;22.67;;;20.77;;
7985;SDS011;4038;42.612;23.066;2023-08-06T15:59:22;23.75;;;21.92;;
7985;SDS011;4038;42.612;23.066;2023-08-06T16:01:48;22.88;;;21.27;;
7985;SDS011;4038;42.612;23.066;2023-08-06T16:04:13;22.40;;;20.88;;
7985;SDS011;4038;42.612;23.066;2023-08-06T16:06:39;22.92;;;21.30;;
7985;SDS011;4038;42.612;23.066;2023-08-06T16:09:04;22.17;;;20.58;;
7985;SDS011;4038;42.612;23.066;2023-08-06T16:11:30;23.20;;;21.48;;
7985;SDS011;4038;42.612;23.066;2023-08-06T16:13:55;22.88;;;21.25;;
7985;SDS011;4038;42.612;23.066;2023-08-06T16:16:20;23.00;;;21.27;;
7985;SDS011;4038;42.612;23.066;2023-08-06T16:18:46;23.65;;;21.90;;
7985;SDS011;4038;42.612;23.066;2023-08-06T16:21:12;23.10;;;21.40;;
7985;SDS011;4038;42.612;23.066;2023-08-06T16:23:37;23.63;;;21.73;;
7985;SDS011;4038;42.612;23.066;2023-08-06T16:26:03;22.35;;;20.75;;
7985;SDS011;4038;42.612;23.066;2023-08-06T16:28:29;22.95;;;21.25;;
7985;SDS011;4038;42.612;23.066;2023-08-06T16:30:54;23.40;;;21.60;;
7985;SDS011;4038;42.612;23.066;2023-08-06T16:33:20;23.60;;;21.90;;
7985;SDS011;4038;42.612;23.066;2023-08-06T16:35:45;23.58;;;21.88;;
7985;SDS011;4038;42.612;23.066;2023-08-06T16:38:11;23.45;;;21.73;;
7985;SDS011;4038;42.612;23.066;2023-08-06T16:40:36;22.90;;;21.30;;
7985;SDS011;4038;42.612;23.066;2023-08-06T16:43:02;23.13;;;21.42;;
7985;SDS011;4038;42.612;23.066;2023-08-06T16:45:29;23.60;;;21.90;;
7985;SDS011;4038;42.612;23.066;2023-08-06T16:47:55;23.42;;;21.63;;
7985;SDS011;4038;42.612;23.066;2023-08-06T16:50:20;23.90;;;22.17;;